Time;durP1;ratioP1;P1;durP2;ratioP2;P2;SDS_P1;SDS_P2;PMS_P1;PMS_P2;Temp;Humidity;BMP_temperature;BMP_pressure;BME280_temperature;BME280_humidity;BME280_pressure;Samples;Min_cycle;Max_cycle;Signal;HPM_P1;HPM_P2
2022/10/30 00:02:47;;;;;;;22.02;6.63;;;;;;;16.07;100.00;100097.50;12209673;19;20014;-82
2022/10/30 00:06:48;;;;;;;;;;;;;;;16.00;100.00;100094.16;12208120;19;20471;-84
2022/10/30 00:10:50;;;;;;;19.65;7.13;;;;;;;15.92;100.00;100088.06;12188212;19;19923;-83
2022/10/30 00:14:52;;;;;;;15.67;7.57;;;;;;;15.85;100.00;100083.88;12207043;19;20129;-83
2022/10/30 00:18:53;;;;;;;16.65;7.43;;;;;;;15.77;100.00;100088.06;12210344;19;20025;-82
2022/10/30 00:22:55;;;;;;;19.88;8.15;;;;;;;15.68;100.00;100096.13;12188278;19;20010;-82
2022/10/30 00:26:57;;;;;;;17.73;6.95;;;;;;;15.61;100.00;100083.56;12209188;19;20021;-83
2022/10/30 00:31:01;;;;;;;16.23;7.72;;;;;;;15.55;100.00;100093.00;12206570;19;20022;-83
2022/10/30 00:35:03;;;;;;;27.65;8.30;;;;;;;15.47;100.00;100078.56;12184389;19;20017;-83
2022/10/30 00:39:05;;;;;;;20.83;8.13;;;;;;;15.42;100.00;100084.13;12209465;19;20011;-83
2022/10/30 00:43:26;;;;;;;16.88;8.00;;;;;;;15.42;100.00;100088.84;12208542;19;20014;-83
2022/10/30 00:47:36;;;;;;;14.05;6.72;;;;;;;15.41;100.00;100087.19;12185232;19;20078;-83
2022/10/30 00:51:44;;;;;;;21.95;7.60;;;;;;;15.40;100.00;100080.75;12207814;19;20042;-82
2022/10/30 00:55:56;;;;;;;23.85;7.90;;;;;;;15.43;100.00;100082.16;12187584;19;20002;-82
2022/10/30 00:59:58;;;;;;;14.27;6.78;;;;;;;15.42;100.00;100075.78;12203084;19;20507;-81
2022/10/30 01:04:02;;;;;;;22.60;7.17;;;;;;;15.43;100.00;100074.66;12230866;19;20006;-81
2022/10/30 01:08:04;;;;;;;22.88;7.28;;;;;;;15.42;100.00;100066.63;12230023;19;20011;-81
2022/10/30 01:12:06;;;;;;;18.33;7.68;;;;;;;15.40;100.00;100066.88;12230096;19;20006;-83
2022/10/30 01:16:41;;;;;;;17.23;7.10;;;;;;;15.38;100.00;100065.53;12228660;19;20018;-82
2022/10/30 01:21:24;;;;;;;17.15;6.90;;;;;;;15.31;100.00;100062.97;12223284;19;20017;-84
2022/10/30 01:25:45;;;;;;;15.48;6.65;;;;;;;15.24;100.00;100067.97;12232473;19;20019;-82
2022/10/30 01:30:19;;;;;;;13.93;6.53;;;;;;;15.17;100.00;100068.25;12226006;19;20003;-82
2022/10/30 01:35:02;;;;;;;14.90;7.20;;;;;;;15.13;100.00;100060.72;12229497;19;20007;-82
2022/10/30 01:39:26;;;;;;;18.70;7.53;;;;;;;15.08;100.00;100061.56;12228445;19;20014;-81
2022/10/30 01:43:27;;;;;;;21.08;7.10;;;;;;;15.03;100.00;100058.78;12234681;19;20015;-82
2022/10/30 01:47:43;;;;;;;24.05;6.97;;;;;;;15.00;100.00;100056.53;12240082;19;20027;-82
2022/10/30 01:51:56;;;;;;;19.05;7.38;;;;;;;14.96;100.00;100056.25;12240877;19;20014;-83
2022/10/30 01:56:26;;;;;;;17.20;7.15;;;;;;;14.91;100.00;100049.88;12240775;19;20037;-83
2022/10/30 02:00:36;;;;;;;21.55;7.78;;;;;;;14.89;100.00;100052.91;12241164;19;20645;-81
2022/10/30 02:04:39;;;;;;;15.40;6.88;;;;;;;14.87;100.00;100060.66;12189021;19;20007;-82
2022/10/30 02:08:41;;;;;;;23.17;7.63;;;;;;;14.85;100.00;100056.50;12217014;19;20038;-83
2022/10/30 02:12:43;;;;;;;14.77;7.88;;;;;;;14.80;100.00;100055.34;12214532;19;20002;-81
2022/10/30 02:16:49;;;;;;;18.08;7.28;;;;;;;14.74;100.00;100050.91;12192575;19;20007;-83
2022/10/30 02:20:53;;;;;;;19.00;8.15;;;;;;;14.72;100.00;100055.03;12217696;19;20349;-82
2022/10/30 02:24:54;;;;;;;19.92;8.13;;;;;;;14.71;100.00;100062.53;12216464;19;20003;-83
2022/10/30 02:28:58;;;;;;;17.55;8.18;;;;;;;14.73;100.00;100065.06;12192645;19;20054;-83
2022/10/30 02:32:59;;;;;;;17.42;8.15;;;;;;;14.74;100.00;100066.72;12216320;19;20010;-82
2022/10/30 02:37:02;;;;;;;21.30;8.90;;;;;;;14.76;100.00;100075.59;12227208;19;20007;-83
2022/10/30 02:41:04;;;;;;;19.10;8.02;;;;;;;14.80;100.00;100072.00;12199515;19;20108;-82
2022/10/30 02:45:07;;;;;;;21.05;8.23;;;;;;;14.84;100.00;100068.69;12227222;19;20010;-82
2022/10/30 02:49:08;;;;;;;19.92;9.18;;;;;;;14.90;100.00;100065.69;12253511;19;20017;-82
2022/10/30 02:53:10;;;;;;;18.88;7.82;;;;;;;14.97;100.00;100071.78;12195605;19;20067;-82
2022/10/30 02:57:13;;;;;;;17.40;8.10;;;;;;;15.04;100.00;100068.75;12217723;19;20093;-83
2022/10/30 03:01:17;;;;;;;23.83;7.93;;;;;;;15.12;100.00;100061.84;12216865;19;20082;-82
2022/10/30 03:05:19;;;;;;;17.00;7.95;;;;;;;15.16;100.00;100058.22;12191947;19;20015;-82
2022/10/30 03:09:21;;;;;;;16.45;7.97;;;;;;;15.21;100.00;100068.53;12214835;19;20022;-82
2022/10/30 03:13:23;;;;;;;19.23;8.60;;;;;;;15.26;100.00;100071.31;12214356;19;20113;-83
2022/10/30 03:17:25;;;;;;;19.25;8.45;;;;;;;15.28;100.00;100066.31;12192478;19;20014;-83
2022/10/30 03:21:28;;;;;;;22.37;9.63;;;;;;;15.30;100.00;100058.56;12213456;19;20034;-83
2022/10/30 03:25:31;;;;;;;18.23;8.07;;;;;;;15.30;100.00;100057.72;12214083;19;20045;-82
2022/10/30 03:29:33;;;;;;;16.73;8.43;;;;;;;15.31;100.00;100067.72;12189438;19;20015;-83
2022/10/30 03:33:37;;;;;;;18.02;8.07;;;;;;;15.28;100.00;100071.88;12211830;19;20081;-83
2022/10/30 03:37:39;;;;;;;22.10;9.17;;;;;;;15.25;100.00;100075.19;12189626;19;20380;-82
2022/10/30 03:41:42;;;;;;;15.75;8.52;;;;;;;15.21;100.00;100076.84;12213883;19;20003;-82
2022/10/30 03:45:49;;;;;;;15.60;7.82;;;;;;;15.19;100.00;100081.84;12208192;19;20014;-82
2022/10/30 03:49:51;;;;;;;21.45;7.90;;;;;;;15.15;100.00;100075.19;12189061;19;20011;-82
2022/10/30 03:53:54;;;;;;;;;;;;;;;15.10;100.00;100075.97;12210712;19;20014;-82
2022/10/30 03:57:55;;;;;;;18.00;7.40;;;;;;;15.06;100.00;100074.03;12206062;19;19946;-82
2022/10/30 04:01:58;;;;;;;23.27;8.60;;;;;;;15.02;100.00;100071.81;12191356;19;20518;-82
2022/10/30 04:06:00;;;;;;;20.52;9.00;;;;;;;14.99;100.00;100065.97;12210647;19;20035;-82
2022/10/30 04:10:02;;;;;;;19.80;9.85;;;;;;;14.95;100.00;100071.22;12213355;19;20361;-82
2022/10/30 04:14:04;;;;;;;20.27;9.07;;;;;;;14.94;100.00;100068.75;12188113;19;20510;-81
2022/10/30 04:18:09;;;;;;;19.23;8.70;;;;;;;14.91;100.00;100064.56;12214134;19;20501;-82
2022/10/30 04:22:11;;;;;;;23.92;8.65;;;;;;;14.89;100.00;100077.03;12212387;19;20116;-83
2022/10/30 04:26:13;;;;;;;23.38;9.10;;;;;;;14.86;100.00;100069.25;12192164;19;20018;-81
2022/10/30 04:30:20;;;;;;;20.67;8.13;;;;;;;14.84;100.00;100077.00;12213727;19;20063;-81
2022/10/30 04:34:21;;;;;;;20.55;8.50;;;;;;;14.81;100.00;100073.69;12211838;19;20006;-81
2022/10/30 04:38:23;;;;;;;32.55;9.55;;;;;;;14.77;100.00;100072.53;12191430;19;20015;-82
2022/10/30 04:42:25;;;;;;;21.70;9.15;;;;;;;14.76;100.00;100078.38;12210429;19;20015;-81
2022/10/30 04:46:27;;;;;;;17.83;8.20;;;;;;;14.76;100.00;100070.88;12211312;19;20031;-82
2022/10/30 04:50:38;;;;;;;18.75;8.40;;;;;;;14.77;100.00;100071.72;12195373;19;20015;-82
2022/10/30 04:54:40;;;;;;;22.50;8.98;;;;;;;14.77;100.00;100077.25;12227337;19;20046;-80
2022/10/30 04:58:41;;;;;;;16.77;7.45;;;;;;;14.75;100.00;100063.69;12249762;19;19991;-81
2022/10/30 05:02:43;;;;;;;24.55;8.95;;;;;;;14.73;100.00;100060.34;12245580;19;20003;-81
2022/10/30 05:07:06;;;;;;;18.50;8.10;;;;;;;14.71;100.00;100061.72;12220158;19;20002;-81
2022/10/30 05:11:07;;;;;;;19.08;8.10;;;;;;;14.70;100.00;100057.28;12192355;19;20011;-82
2022/10/30 05:15:11;;;;;;;20.05;7.65;;;;;;;14.70;100.00;100054.50;12218999;19;20035;-82
2022/10/30 05:19:13;;;;;;;17.83;7.95;;;;;;;14.66;100.00;100059.72;12220234;19;20006;-80
2022/10/30 05:23:21;;;;;;;16.00;7.57;;;;;;;14.62;100.00;100063.34;12202968;19;20796;-80
2022/10/30 05:27:23;;;;;;;26.33;7.57;;;;;;;14.57;100.00;100056.69;12221333;19;20010;-80
2022/10/30 05:31:25;;;;;;;17.02;8.10;;;;;;;14.53;100.00;100049.16;12225407;19;20026;-82
2022/10/30 05:36:01;;;;;;;20.13;8.75;;;;;;;14.49;100.00;100056.31;12201678;19;20018;-82
2022/10/30 05:40:03;;;;;;;21.33;8.52;;;;;;;14.46;100.00;100052.16;12225362;19;20003;-82
2022/10/30 05:44:06;;;;;;;20.17;9.15;;;;;;;14.44;100.00;100045.19;12205985;19;20010;-82
2022/10/30 05:48:08;;;;;;;21.33;8.77;;;;;;;14.43;100.00;100041.59;12228709;19;20003;-81
2022/10/30 05:52:16;;;;;;;18.20;8.63;;;;;;;14.40;100.00;100039.38;12248993;19;20014;-79
2022/10/30 05:56:17;;;;;;;20.65;9.32;;;;;;;14.38;100.00;100051.81;12238715;19;20021;-81
2022/10/30 06:00:19;;;;;;;20.67;8.43;;;;;;;14.33;100.00;100049.84;12263740;19;20039;-80
2022/10/30 06:04:21;;;;;;;22.75;9.43;;;;;;;14.32;100.00;100060.09;12263734;19;20021;-80
2022/10/30 06:08:27;;;;;;;18.02;8.70;;;;;;;14.33;100.00;100059.00;12239963;19;20018;-81
2022/10/30 06:12:32;;;;;;;25.67;9.82;;;;;;;14.32;100.00;100060.09;12260415;19;20019;-79
2022/10/30 06:16:47;;;;;;;20.20;8.35;;;;;;;14.33;100.00;100077.56;12240329;19;20010;-80
2022/10/30 06:21:21;;;;;;;22.88;8.50;;;;;;;14.30;100.00;100078.94;12269783;19;20006;-79
2022/10/30 06:25:46;;;;;;;23.25;10.07;;;;;;;14.30;100.00;100069.78;12251473;19;20003;-79
2022/10/30 06:29:56;;;;;;;27.75;9.27;;;;;;;14.30;100.00;100080.88;12270594;19;20009;-80
2022/10/30 06:33:58;;;;;;;21.08;9.63;;;;;;;14.29;100.00;100076.44;12234018;19;20047;-82
2022/10/30 06:37:59;;;;;;;23.13;9.30;;;;;;;14.28;100.00;100077.56;12198588;19;20006;-81
2022/10/30 06:42:03;;;;;;;21.77;9.63;;;;;;;14.28;100.00;100089.47;12220959;19;20094;-82
2022/10/30 06:46:22;;;;;;;22.02;10.25;;;;;;;14.30;100.00;100086.41;12219793;19;20869;-81
2022/10/30 06:50:31;;;;;;;20.17;9.43;;;;;;;14.31;100.00;100093.66;12197339;19;20102;-82
2022/10/30 06:54:34;;;;;;;;;;;;;;;14.34;100.00;100087.56;12202402;19;20490;-82
2022/10/30 06:58:56;;;;;;;28.08;9.90;;;;;;;14.38;100.00;100077.59;12204353;19;19924;-82
2022/10/30 07:03:09;;;;;;;19.75;9.82;;;;;;;14.43;100.00;100088.72;12220400;19;20018;-82
2022/10/30 07:07:12;;;;;;;20.23;9.10;;;;;;;14.50;100.00;100089.31;12218931;19;20015;-82
2022/10/30 07:11:14;;;;;;;18.58;9.45;;;;;;;14.53;100.00;100087.97;12195217;19;20073;-82
2022/10/30 07:15:48;;;;;;;24.85;8.95;;;;;;;14.57;100.00;100089.94;12215290;19;20350;-81
2022/10/30 07:19:57;;;;;;;18.05;10.10;;;;;;;14.66;100.00;100092.19;12196344;19;20086;-82
2022/10/30 07:23:59;;;;;;;20.25;10.00;;;;;;;14.74;100.00;100095.28;12216999;19;20030;-82
2022/10/30 07:28:08;;;;;;;25.08;9.85;;;;;;;14.83;100.00;100098.38;12216868;19;20011;-82
2022/10/30 07:32:22;;;;;;;22.35;9.10;;;;;;;14.94;100.00;100105.63;12193019;19;20460;-82
2022/10/30 07:36:42;;;;;;;21.02;10.40;;;;;;;15.04;100.00;100105.66;12213844;19;20566;-81
2022/10/30 07:40:58;;;;;;;19.00;9.23;;;;;;;15.10;100.00;100117.63;12190484;19;20753;-82
2022/10/30 07:45:21;;;;;;;22.17;10.05;;;;;;;15.20;100.00;100117.66;12213731;19;20006;-82
2022/10/30 07:49:41;;;;;;;21.30;9.98;;;;;;;15.27;100.00;100111.84;12196048;19;20089;-81
2022/10/30 07:53:44;;;;;;;16.23;7.43;;;;;;;15.33;100.00;100112.69;12213999;19;20464;-82
2022/10/30 07:57:46;;;;;;;17.40;8.90;;;;;;;15.39;100.00;100117.16;12213528;19;20073;-83
2022/10/30 08:02:09;;;;;;;21.10;9.55;;;;;;;15.44;100.00;100128.28;12192671;19;20072;-81
2022/10/30 08:06:31;;;;;;;20.52;9.30;;;;;;;15.57;100.00;100124.13;12212531;19;20007;-81
2022/10/30 08:10:33;;;;;;;19.33;8.90;;;;;;;15.68;100.00;100114.75;12212383;19;20027;-81
2022/10/30 08:14:35;;;;;;;22.35;10.27;;;;;;;15.79;100.00;100113.63;12192530;19;20425;-82
2022/10/30 08:18:40;;;;;;;17.20;9.07;;;;;;;15.92;100.00;100109.47;12211223;19;20003;-82
2022/10/30 08:22:52;;;;;;;22.55;9.25;;;;;;;16.07;100.00;100122.53;12184247;19;20013;-81
2022/10/30 08:26:58;;;;;;;20.33;9.13;;;;;;;16.25;100.00;100116.38;12213249;19;20010;-82
2022/10/30 08:31:01;;;;;;;20.92;8.52;;;;;;;16.41;100.00;100111.63;12209595;19;20011;-82
2022/10/30 08:35:24;;;;;;;24.85;8.98;;;;;;;16.57;100.00;100116.06;12187675;19;20010;-81
2022/10/30 08:39:26;;;;;;;22.02;8.23;;;;;;;16.73;100.00;100121.56;12207784;19;20118;-82
2022/10/30 08:43:34;;;;;;;17.88;8.57;;;;;;;16.84;100.00;100115.72;12209008;19;20003;-82
2022/10/30 08:47:36;;;;;;;17.97;8.90;;;;;;;16.90;100.00;100115.72;12187103;19;20006;-82
2022/10/30 08:51:40;;;;;;;21.23;9.95;;;;;;;16.95;100.00;100115.66;12209483;19;20055;-80
2022/10/30 08:55:42;;;;;;;15.80;8.65;;;;;;;17.02;100.00;100127.34;12189725;19;20010;-80
2022/10/30 08:59:51;;;;;;;24.13;9.85;;;;;;;17.15;100.00;100121.16;12205090;19;20014;-81
2022/10/30 09:04:25;;;;;;;17.38;9.20;;;;;;;17.30;100.00;100126.63;12199785;19;20007;-81
2022/10/30 09:08:45;;;;;;;20.00;9.82;;;;;;;17.48;100.00;100118.72;12184505;19;20023;-81
2022/10/30 09:12:58;;;;;;;20.15;9.57;;;;;;;17.59;100.00;100117.56;12209121;19;20382;-82
2022/10/30 09:16:59;;;;;;;24.30;9.55;;;;;;;17.69;100.00;100114.69;12193494;19;20097;-81
2022/10/30 09:21:02;;;;;;;16.70;7.63;;;;;;;17.97;100.00;100112.28;12211447;19;20015;-80
2022/10/30 09:25:10;;;;;;;19.60;8.65;;;;;;;18.15;100.00;100108.78;12163636;19;20026;-80
2022/10/30 09:29:21;;;;;;;16.23;7.65;;;;;;;18.39;100.00;100106.03;12187984;19;20042;-80
2022/10/30 09:33:28;;;;;;;18.83;7.95;;;;;;;18.53;100.00;100103.38;12211899;19;20366;-80
2022/10/30 09:38:06;;;;;;;17.50;7.68;;;;;;;18.68;100.00;100102.38;12185038;19;20010;-80
2022/10/30 09:42:35;;;;;;;18.63;7.53;;;;;;;18.86;100.00;100098.84;12212270;19;20281;-82
2022/10/30 09:46:53;;;;;;;14.98;6.97;;;;;;;19.06;100.00;100097.72;12196413;19;20013;-80
2022/10/30 09:51:04;;;;;;;18.75;7.63;;;;;;;19.25;100.00;100099.72;12211872;19;20025;-80
2022/10/30 09:55:35;;;;;;;17.70;7.80;;;;;;;19.41;100.00;100095.56;12205423;19;20042;-81
2022/10/30 09:59:40;;;;;;;14.88;6.57;;;;;;;19.61;100.00;100100.03;12182605;19;20042;-80
2022/10/30 10:04:17;;;;;;;17.80;7.93;;;;;;;19.73;100.00;100100.44;12205010;19;20010;-80
2022/10/30 10:08:49;;;;;;;15.07;6.70;;;;;;;19.85;100.00;100099.97;12194129;19;20049;-81
2022/10/30 10:13:37;;;;;;;13.98;6.78;;;;;;;20.08;100.00;100088.94;12214591;19;20109;-80
2022/10/30 10:17:43;;;;;;;15.48;6.20;;;;;;;20.23;100.00;100091.50;12197932;19;20093;-81
2022/10/30 10:22:02;;;;;;;16.23;7.13;;;;;;;20.34;100.00;100087.34;12219486;19;20789;-81
2022/10/30 10:26:25;;;;;;;16.88;6.45;;;;;;;20.39;100.00;100086.44;12237016;19;20004;-79
2022/10/30 10:30:39;;;;;;;13.50;6.68;;;;;;;20.60;100.00;100089.69;12271750;19;20030;-82
2022/10/30 10:35:13;;;;;;;16.55;7.70;;;;;;;20.76;100.00;100082.63;12219134;19;20014;-80
2022/10/30 10:39:28;;;;;;;17.00;6.60;;;;;;;20.94;100.00;100084.53;12122328;19;2004554;-81
2022/10/30 10:43:52;;;;;;;13.73;7.00;;;;;;;21.06;98.55;100083.13;12222106;19;20003;-82
2022/10/30 10:48:24;;;;;;;13.73;5.68;;;;;;;21.29;97.51;100079.25;12206377;19;20006;-80
2022/10/30 10:52:36;;;;;;;17.70;6.07;;;;;;;21.45;96.12;100076.16;12223184;19;20018;-79
2022/10/30 10:56:41;;;;;;;13.63;5.80;;;;;;;21.41;92.58;100077.91;12203431;19;20007;-79
2022/10/30 11:00:44;;;;;;;17.48;6.82;;;;;;;21.53;92.00;100078.19;12223435;19;20082;-80
2022/10/30 11:04:53;;;;;;;16.30;6.32;;;;;;;21.70;90.37;100067.13;12202200;19;20007;-80
2022/10/30 11:09:11;;;;;;;16.42;5.68;;;;;;;21.84;88.38;100070.69;12222860;19;20051;-79
2022/10/30 11:13:13;;;;;;;13.95;5.75;;;;;;;21.96;89.10;100070.13;12220802;19;20087;-79
2022/10/30 11:17:40;;;;;;;12.82;5.90;;;;;;;22.09;84.03;100059.97;12197075;19;20011;-80
2022/10/30 11:21:47;;;;;;;20.67;6.13;;;;;;;22.30;83.25;100061.09;12220104;19;20005;-81
2022/10/30 11:25:49;;;;;;;11.85;5.90;;;;;;;22.49;79.66;100065.66;12195653;19;20030;-81
2022/10/30 11:29:57;;;;;;;13.07;5.80;;;;;;;22.87;80.47;100071.56;12207360;19;20015;-80
2022/10/30 11:34:12;;;;;;;24.90;6.35;;;;;;;23.21;80.08;100047.56;12205040;19;20030;-81
2022/10/30 11:38:19;;;;;;;13.02;5.40;;;;;;;23.53;77.63;100053.84;12190658;19;20011;-81
2022/10/30 11:42:20;;;;;;;12.55;5.30;;;;;;;23.83;77.13;100055.69;12218279;19;20007;-82
2022/10/30 11:46:23;;;;;;;15.10;5.80;;;;;;;24.16;77.41;100054.31;12219427;19;20030;-81
2022/10/30 11:50:26;;;;;;;;;;;;;;;24.26;76.53;100045.50;12199115;19;20027;-82
2022/10/30 11:54:28;;;;;;;16.40;5.53;;;;;;;24.20;68.57;100044.03;12217629;19;19937;-81
2022/10/30 11:58:37;;;;;;;16.40;5.93;;;;;;;24.25;67.63;100046.69;12220680;19;20483;-83
2022/10/30 12:02:41;;;;;;;13.05;5.90;;;;;;;24.55;68.69;100037.13;12195391;19;20074;-82
2022/10/30 12:06:43;;;;;;;12.80;5.40;;;;;;;24.68;68.81;100040.06;12217744;19;20009;-81
2022/10/30 12:10:46;;;;;;;13.83;5.93;;;;;;;24.91;68.84;100038.59;12218300;19;20003;-82
2022/10/30 12:14:48;;;;;;;12.05;5.38;;;;;;;24.94;68.10;100031.47;12222717;19;20074;-83
2022/10/30 12:18:58;;;;;;;14.98;5.68;;;;;;;24.87;66.40;100034.00;12222135;19;20014;-83
2022/10/30 12:23:09;;;;;;;12.48;4.95;;;;;;;24.74;63.80;100025.44;12215984;19;20041;-82
2022/10/30 12:27:15;;;;;;;10.90;5.38;;;;;;;25.11;64.53;100028.53;12215715;19;20424;-82
2022/10/30 12:31:41;;;;;;;11.75;4.80;;;;;;;25.61;60.21;100016.41;12222092;19;20010;-82
2022/10/30 12:35:49;;;;;;;13.95;4.68;;;;;;;26.49;57.41;100027.59;12195142;19;20006;-82
2022/10/30 12:39:56;;;;;;;14.30;5.03;;;;;;;27.13;55.13;100015.59;12216067;19;20011;-82
2022/10/30 12:44:09;;;;;;;10.68;3.88;;;;;;;27.48;50.53;100009.38;12196645;19;20014;-81
2022/10/30 12:48:24;;;;;;;9.07;4.20;;;;;;;27.62;48.58;100008.97;12219513;19;20643;-83
2022/10/30 12:52:52;;;;;;;8.25;3.60;;;;;;;26.86;47.25;100011.50;12223073;19;20523;-82
2022/10/30 12:57:06;;;;;;;9.82;3.83;;;;;;;26.02;49.01;100005.38;12201005;19;20597;-83
2022/10/30 13:01:26;;;;;;;9.43;3.42;;;;;;;25.54;52.02;100001.19;12223687;19;20473;-83
2022/10/30 13:05:32;;;;;;;9.55;4.10;;;;;;;25.09;53.03;99996.22;12201517;19;20011;-82
2022/10/30 13:09:43;;;;;;;9.93;3.92;;;;;;;24.74;53.57;99993.63;12220144;19;20027;-82
2022/10/30 13:13:51;;;;;;;7.40;3.45;;;;;;;24.44;51.97;99995.59;12221225;19;20027;-83
2022/10/30 13:17:57;;;;;;;8.93;3.72;;;;;;;24.14;53.09;99995.53;12202025;19;20030;-82
2022/10/30 13:22:12;;;;;;;10.13;3.50;;;;;;;24.01;54.16;99990.94;12223667;19;20015;-82
2022/10/30 13:26:43;;;;;;;12.48;4.03;;;;;;;23.96;53.98;99991.94;12200538;19;20018;-82
2022/10/30 13:31:12;;;;;;;10.23;3.45;;;;;;;23.87;53.63;99989.13;12221718;19;20464;-82
2022/10/30 13:35:26;;;;;;;7.45;3.40;;;;;;;23.83;54.09;99988.16;12202408;19;20011;-82
2022/10/30 13:40:10;;;;;;;11.02;3.40;;;;;;;23.73;54.94;99984.88;12225783;19;20047;-82
2022/10/30 13:44:25;;;;;;;7.93;3.67;;;;;;;23.66;55.00;99972.09;12210836;19;20036;-82
2022/10/30 13:48:47;;;;;;;10.23;3.92;;;;;;;23.64;55.30;99977.22;12232298;19;20074;-82
2022/10/30 13:52:55;;;;;;;11.63;3.45;;;;;;;23.62;54.91;99979.56;12209909;19;20010;-82
2022/10/30 13:57:06;;;;;;;6.70;3.03;;;;;;;23.59;54.50;99973.78;12229936;19;20014;-82
2022/10/30 14:01:19;;;;;;;8.95;2.97;;;;;;;23.59;53.83;99980.25;12266595;19;20019;-82
2022/10/30 14:05:59;;;;;;;7.82;3.13;;;;;;;23.58;53.28;99987.00;12232637;19;20089;-83
2022/10/30 14:10:07;;;;;;;8.57;2.75;;;;;;;23.55;54.52;99987.66;12229973;19;20010;-83
2022/10/30 14:14:12;;;;;;;8.55;2.90;;;;;;;23.50;54.62;99985.06;12220177;19;20472;-83
2022/10/30 14:18:13;;;;;;;12.98;4.28;;;;;;;23.41;54.65;99990.69;12233921;19;20041;-82
2022/10/30 14:22:23;;;;;;;8.18;2.75;;;;;;;23.35;55.44;99988.34;12281776;19;20019;-80
2022/10/30 14:26:25;;;;;;;9.32;4.10;;;;;;;23.29;55.27;99989.66;12256302;19;20003;-81
2022/10/30 14:30:27;;;;;;;8.47;2.70;;;;;;;23.22;55.81;99992.97;12253144;19;20041;-83
2022/10/30 14:34:57;;;;;;;8.40;3.50;;;;;;;23.06;56.11;99992.66;12235198;19;20018;-83
2022/10/30 14:39:13;;;;;;;8.98;3.50;;;;;;;22.96;56.65;99995.75;12208796;19;20119;-83
2022/10/30 14:43:44;;;;;;;6.00;2.97;;;;;;;22.82;55.62;99989.44;12232122;19;20014;-83
2022/10/30 14:47:54;;;;;;;12.15;5.53;;;;;;;22.74;57.56;99986.28;12208448;19;20002;-82
2022/10/30 14:52:28;;;;;;;7.88;3.50;;;;;;;22.62;57.53;99993.69;12228952;19;20010;-83
2022/10/30 14:56:37;;;;;;;10.43;4.10;;;;;;;22.56;58.65;99993.00;12207196;19;20441;-83
2022/10/30 15:00:41;;;;;;;8.90;3.53;;;;;;;22.43;59.20;99994.78;12225690;19;20007;-82
2022/10/30 15:05:23;;;;;;;10.13;3.30;;;;;;;22.27;58.39;99988.75;12227077;19;20472;-82
2022/10/30 15:09:48;;;;;;;11.85;4.10;;;;;;;22.12;58.51;99986.34;12125093;19;2004380;-82
2022/10/30 15:13:54;;;;;;;11.63;3.97;;;;;;;21.95;59.87;99989.06;12204542;19;20061;-83
2022/10/30 15:18:06;;;;;;;7.53;3.30;;;;;;;21.80;60.36;99988.34;12226912;19;20010;-82
2022/10/30 15:22:17;;;;;;;10.57;6.88;;;;;;;21.63;61.39;99991.03;12226811;19;20396;-81
2022/10/30 15:26:22;;;;;;;16.48;10.35;;;;;;;21.43;62.14;99983.94;12202047;19;20046;-82
2022/10/30 15:30:26;;;;;;;41.00;26.60;;;;;;;21.26;62.58;99998.63;12221919;19;20011;-80
2022/10/30 15:34:30;;;;;;;34.45;20.00;;;;;;;21.07;64.20;99990.38;12223424;19;20030;-80
2022/10/30 15:38:31;;;;;;;14.63;6.13;;;;;;;20.83;65.79;99990.66;12198548;19;20038;-81
2022/10/30 15:42:34;;;;;;;11.50;3.75;;;;;;;20.59;67.13;99993.69;12217778;19;20006;-81
2022/10/30 15:46:37;;;;;;;12.68;3.95;;;;;;;20.36;68.13;99998.31;12221865;19;20010;-81
2022/10/30 15:50:43;;;;;;;9.48;3.40;;;;;;;20.15;69.23;99994.28;12203823;19;20030;-81
2022/10/30 15:54:51;;;;;;;11.15;3.38;;;;;;;19.97;70.36;100001.59;12225140;19;20371;-81
2022/10/30 15:59:06;;;;;;;8.32;3.45;;;;;;;19.77;71.13;99994.41;12247279;19;20031;-80
2022/10/30 16:03:11;;;;;;;10.30;3.65;;;;;;;19.62;71.70;99994.63;12254253;19;20006;-81
2022/10/30 16:07:26;;;;;;;10.18;3.67;;;;;;;19.45;72.92;100001.59;12224339;19;20007;-80
2022/10/30 16:11:29;;;;;;;13.70;3.75;;;;;;;19.29;73.73;100000.19;12196331;19;19998;-81
2022/10/30 16:15:38;;;;;;;12.57;3.40;;;;;;;19.15;74.83;100000.13;12217325;19;20014;-80
2022/10/30 16:19:45;;;;;;;8.95;3.65;;;;;;;19.01;75.65;100005.66;12214466;19;20345;-82
2022/10/30 16:23:50;;;;;;;8.48;3.42;;;;;;;18.89;76.82;100019.22;12196454;19;20341;-82
2022/10/30 16:27:52;;;;;;;9.15;3.92;;;;;;;18.76;77.75;100019.94;12216611;19;20463;-81
2022/10/30 16:31:54;;;;;;;9.90;3.85;;;;;;;18.60;79.36;100022.09;12196848;19;20011;-81
2022/10/30 16:35:56;;;;;;;9.88;3.80;;;;;;;18.45;80.14;100017.53;12216752;19;20025;-79
2022/10/30 16:40:01;;;;;;;15.60;4.18;;;;;;;18.33;80.89;100029.09;12213225;19;20464;-79
2022/10/30 16:44:12;;;;;;;15.23;5.00;;;;;;;18.20;82.52;100032.56;12191776;19;20484;-81
2022/10/30 16:48:19;;;;;;;10.88;4.15;;;;;;;18.09;83.34;100039.41;12216294;19;20010;-80
2022/10/30 16:52:28;;;;;;;14.38;3.97;;;;;;;18.02;84.13;100047.25;12219346;19;20042;-80
2022/10/30 16:56:32;;;;;;;11.25;4.32;;;;;;;17.94;85.20;100049.56;12194250;19;20021;-80
2022/10/30 17:00:34;;;;;;;11.63;4.63;;;;;;;17.90;86.16;100047.66;12215496;19;20066;-80
2022/10/30 17:04:43;;;;;;;13.25;4.40;;;;;;;17.85;87.98;100050.50;12213634;19;20027;-81
2022/10/30 17:08:45;;;;;;;10.85;4.25;;;;;;;17.80;88.61;100048.59;12193571;19;20010;-80
2022/10/30 17:12:46;;;;;;;12.82;5.13;;;;;;;17.74;89.60;100058.91;12216747;19;20033;-79
2022/10/30 17:16:59;;;;;;;10.73;4.60;;;;;;;17.70;90.40;100066.19;12221412;19;20015;-80
2022/10/30 17:21:05;;;;;;;11.03;5.10;;;;;;;17.66;91.13;100070.66;12224027;19;20020;-80
2022/10/30 17:25:27;;;;;;;16.58;5.00;;;;;;;17.62;92.15;100077.13;12223899;19;20014;-79
2022/10/30 17:29:41;;;;;;;16.83;5.82;;;;;;;17.55;93.06;100071.91;12200921;19;20011;-79
2022/10/30 17:33:47;;;;;;;15.52;4.72;;;;;;;17.45;93.13;100075.56;12223424;19;20002;-80
2022/10/30 17:37:49;;;;;;;15.02;4.57;;;;;;;17.42;93.81;100073.34;12213795;19;20025;-80
2022/10/30 17:41:54;;;;;;;16.55;4.82;;;;;;;17.36;94.62;100080.09;12217650;19;20014;-80
2022/10/30 17:45:56;;;;;;;11.73;5.45;;;;;;;17.31;95.51;100080.97;12225654;19;20013;-79
2022/10/30 17:49:59;;;;;;;14.40;5.75;;;;;;;17.28;96.05;100081.53;12240430;19;20100;-79
2022/10/30 17:54:00;;;;;;;15.57;5.18;;;;;;;17.23;96.67;100087.13;12245831;19;20052;-80
2022/10/30 17:58:02;;;;;;;14.32;4.78;;;;;;;17.19;97.67;100091.63;12223849;19;20007;-81
2022/10/30 18:02:15;;;;;;;11.45;5.25;;;;;;;17.20;98.01;100095.25;12204418;19;20078;-79
2022/10/30 18:06:20;;;;;;;10.43;4.55;;;;;;;17.16;98.28;100094.94;12227498;19;20034;-80
2022/10/30 18:10:22;;;;;;;14.75;5.78;;;;;;;17.14;98.45;100108.34;12223405;19;20019;-80
2022/10/30 18:14:24;;;;;;;17.42;5.75;;;;;;;17.14;98.73;100102.78;12200328;19;20022;-80
2022/10/30 18:18:25;;;;;;;11.13;5.40;;;;;;;17.13;98.99;100105.84;12221424;19;20014;-80
2022/10/30 18:22:27;;;;;;;14.80;4.82;;;;;;;17.13;99.37;100103.88;12218663;19;20002;-81
2022/10/30 18:26:29;;;;;;;12.20;5.55;;;;;;;17.17;99.43;100116.13;12197451;19;20021;-80
2022/10/30 18:30:31;;;;;;;10.73;5.05;;;;;;;17.15;99.70;100128.66;12220459;19;20369;-80
2022/10/30 18:34:33;;;;;;;9.65;4.95;;;;;;;17.13;100.00;100133.69;12220630;19;20003;-80
2022/10/30 18:38:34;;;;;;;13.23;5.00;;;;;;;17.11;100.00;100135.94;12195852;19;22380;-80
2022/10/30 18:42:36;;;;;;;14.82;5.85;;;;;;;17.07;100.00;100144.88;12214179;19;20739;-80
2022/10/30 18:46:38;;;;;;;15.53;5.40;;;;;;;17.02;100.00;100138.47;12218042;19;20437;-79
2022/10/30 18:50:41;;;;;;;14.23;5.13;;;;;;;16.97;100.00;100141.28;12199577;19;20353;-79